This is the latest recevied weather packets stored in our database for station/object n3uvr. If no packets are shown the sender has not sent any weather packets the latest 10 day(s).
| Time | Temp. | Humidity | Pressure | Rain* | Wind** | Luminosity | Snow |
|---|---|---|---|---|---|---|---|
| 1777667819 | 14.44° C | 51% | 1009.3 hPa | 0 mm | - | 76 W/m² | - |
| 1777667221 | 14.44° C | 48% | 1009.3 hPa | 0 mm | - | 90 W/m² | - |
| 1777666608 | 15° C | 47% | 1009.3 hPa | 0 mm | - | 90 W/m² | - |
| 1777665390 | 15.56° C | 44% | 1009.2 hPa | 0 mm | - | 165 W/m² | - |
| 1777664794 | 15.56° C | 42% | 1009.2 hPa | 0 mm | - | 179 W/m² | - |
| 1777664180 | 15.56° C | 44% | 1009.2 hPa | 0 mm | - | 803 W/m² | - |
| 1777662366 | 15.56° C | 42% | 1009.3 hPa | 0 mm | - | 253 W/m² | - |
| 1777661757 | 15.56° C | 44% | 1009.4 hPa | 0 mm | - | 195 W/m² | - |
| 1777661173 | 15.56° C | 44% | 1009.5 hPa | 0 mm | - | 265 W/m² | - |
| 1777660588 | 15.56° C | 48% | 1009.6 hPa | 0 mm | - | 1120 W/m² | - |
| 1777659993 | 15° C | 46% | 1009.8 hPa | 0 mm | - | 417 W/m² | - |
| 1777659406 | 15.56° C | 45% | 1009.8 hPa | 0 mm | - | 1004 W/m² | - |
| 1777658812 | 15.56° C | 45% | 1009.9 hPa | 0 mm | - | 1013 W/m² | - |
| 1777658221 | 15.56° C | 46% | 1010 hPa | 0 mm | - | 241 W/m² | - |
| 1777657619 | 16.67° C | 40% | 1010.1 hPa | 0 mm | - | 176 W/m² | - |
| 1777655809 | 16.11° C | 43% | 1010.8 hPa | 0 mm | - | 923 W/m² | - |
| 1777655192 | 16.11° C | 41% | 1010.8 hPa | 0 mm | - | 1032 W/m² | - |
| 1777654553 | 16.11° C | 43% | 1011 hPa | 0 mm | - | 988 W/m² | - |
| 1777653928 | 16.11° C | 46% | 1011 hPa | 0 mm | - | 991 W/m² | - |
| 1777653339 | 15° C | 47% | 1011.3 hPa | 0 mm | - | 1005 W/m² | - |
| 1777652166 | 13.33° C | 53% | 1011.5 hPa | 0 mm | - | 1032 W/m² | - |
| 1777651559 | 12.78° C | 55% | 1011.5 hPa | 0 mm | - | 991 W/m² | - |
| 1777650956 | 12.78° C | 53% | 1011.7 hPa | 0 mm | - | 160 W/m² | - |
| 1777650340 | 12.78° C | 55% | 1011.7 hPa | 0 mm | - | 1076 W/m² | - |
| 1777649748 | 12.78° C | 56% | 1011.6 hPa | 0 mm | - | 165 W/m² | - |
* Rain latest hour (hover to see other rain measurements)
** Current wind speed in m/s (hover to see current wind gust speed)